Time;durP1;ratioP1;P1;durP2;ratioP2;P2;SDS_P1;SDS_P2;PMS_P1;PMS_P2;Temp;Humidity;BMP_temperature;BMP_pressure;BME280_temperature;BME280_humidity;BME280_pressure;Samples;Min_cycle;Max_cycle;Signal;HPM_P1;HPM_P2
2021/03/03 00:00:12;;;;;;;14.60;11.77;;;;;;;-0.76;92.70;99435.09;4991450;28;20585;-69
2021/03/03 00:02:39;;;;;;;14.53;11.73;;;;;;;-1.00;92.67;99442.88;4988495;28;20216;-70
2021/03/03 00:05:08;;;;;;;15.80;11.40;;;;;;;-0.95;93.79;99440.13;4984823;28;20229;-70
2021/03/03 00:07:35;;;;;;;12.30;11.10;;;;;;;-1.02;93.01;99444.69;4987313;28;20221;-70
2021/03/03 00:10:04;;;;;;;13.50;11.93;;;;;;;-0.98;93.00;99446.28;4989393;28;20220;-70
2021/03/03 00:12:31;;;;;;;14.47;11.43;;;;;;;-1.01;93.80;99441.19;4992489;28;20776;-70
2021/03/03 00:14:58;;;;;;;14.03;11.80;;;;;;;-1.09;93.14;99443.22;4983103;28;20206;-70
2021/03/03 00:17:25;;;;;;;13.63;11.83;;;;;;;-1.07;94.58;99436.19;4977702;28;20225;-70
2021/03/03 00:19:53;;;;;;;12.43;11.13;;;;;;;-1.06;94.25;99432.69;4984968;28;20217;-70
2021/03/03 00:22:20;;;;;;;12.77;11.00;;;;;;;-1.09;95.75;99432.81;4986523;28;20209;-70
2021/03/03 00:24:47;;;;;;;12.80;11.37;;;;;;;-1.10;94.38;99431.09;4985297;28;20225;-70
2021/03/03 00:27:14;;;;;;;11.20;9.93;;;;;;;-1.18;94.78;99432.22;4990280;28;20232;-70
2021/03/03 00:29:41;;;;;;;13.63;10.27;;;;;;;-1.24;94.26;99424.66;4986487;28;20205;-70
2021/03/03 00:32:09;;;;;;;12.40;11.20;;;;;;;-1.30;94.86;99432.69;4989339;28;20209;-70
2021/03/03 00:34:36;;;;;;;11.67;10.47;;;;;;;-1.34;94.89;99424.13;4984584;28;20260;-70
2021/03/03 00:37:03;;;;;;;12.63;11.33;;;;;;;-1.33;94.29;99422.34;4989202;28;20716;-69
2021/03/03 00:39:31;;;;;;;12.50;11.20;;;;;;;-1.38;94.73;99422.53;4990779;28;20204;-69
2021/03/03 00:41:58;;;;;;;14.43;10.57;;;;;;;-1.36;95.14;99419.84;4985310;28;20214;-71
2021/03/03 00:44:25;;;;;;;14.80;10.30;;;;;;;-1.43;94.75;99411.44;4989565;28;20229;-70
2021/03/03 00:46:52;;;;;;;11.33;10.17;;;;;;;-1.54;95.04;99419.59;4990222;28;20236;-70
2021/03/03 00:49:20;;;;;;;12.33;11.03;;;;;;;-1.40;96.08;99413.94;4993489;28;20756;-70
2021/03/03 00:51:47;;;;;;;13.07;10.67;;;;;;;-1.53;95.62;99413.50;4990318;28;20216;-69
2021/03/03 00:54:14;;;;;;;12.23;11.03;;;;;;;-1.50;95.78;99407.34;4993928;28;20204;-70
2021/03/03 00:56:41;;;;;;;12.53;11.10;;;;;;;-1.65;97.25;99403.53;4991877;28;20236;-69
2021/03/03 00:59:08;;;;;;;11.67;10.47;;;;;;;-1.74;98.14;99404.69;4994237;28;20620;-69
2021/03/03 01:01:35;;;;;;;12.43;10.07;;;;;;;-1.75;98.03;99403.81;4992831;28;20260;-69
2021/03/03 01:04:02;;;;;;;11.07;10.07;;;;;;;-1.66;97.68;99394.03;4990599;28;20457;-69
2021/03/03 01:06:30;;;;;;;11.43;9.87;;;;;;;-1.44;96.66;99395.88;4993219;28;20653;-70
2021/03/03 01:08:57;;;;;;;10.83;9.70;;;;;;;-1.59;96.66;99395.50;4990931;28;20220;-70
2021/03/03 01:11:24;;;;;;;11.80;10.57;;;;;;;-1.66;96.82;99394.88;4993609;28;20205;-70
2021/03/03 01:13:51;;;;;;;10.10;9.07;;;;;;;-1.63;95.85;99399.13;4984793;28;20210;-69
2021/03/03 01:16:18;;;;;;;11.77;10.47;;;;;;;-1.79;96.54;99398.78;4986171;28;20303;-70
2021/03/03 01:18:45;;;;;;;11.97;10.53;;;;;;;-1.78;97.14;99401.31;4987877;28;20212;-70
2021/03/03 01:21:12;;;;;;;11.97;10.07;;;;;;;-1.80;98.43;99407.50;4988075;28;20699;-70
2021/03/03 01:23:41;;;;;;;10.60;9.60;;;;;;;-1.77;96.73;99404.78;4986344;28;20236;-70
2021/03/03 01:26:08;;;;;;;10.63;9.53;;;;;;;-1.80;97.06;99413.53;4986191;28;20372;-71
2021/03/03 01:28:35;;;;;;;11.87;10.40;;;;;;;-1.73;97.60;99400.31;4986369;28;20228;-70
2021/03/03 01:31:02;;;;;;;11.67;10.10;;;;;;;-1.84;97.94;99401.53;4986399;28;20210;-70
2021/03/03 01:33:30;;;;;;;14.87;11.67;;;;;;;-1.76;97.87;99406.47;4990169;28;20211;-71
2021/03/03 01:35:58;;;;;;;12.37;10.50;;;;;;;-1.73;98.54;99403.78;4982484;28;20236;-70
2021/03/03 01:38:25;;;;;;;11.60;10.50;;;;;;;-1.78;98.15;99403.91;4987094;28;20209;-70
2021/03/03 01:40:54;;;;;;;12.37;10.97;;;;;;;-1.89;99.66;99398.25;4989548;28;20228;-71
2021/03/03 01:43:21;;;;;;;11.70;10.23;;;;;;;-1.85;100.00;99394.63;4986198;28;20252;-70
2021/03/03 01:45:48;;;;;;;13.00;10.90;;;;;;;-1.64;100.00;99393.06;4988282;28;20214;-70
2021/03/03 01:48:16;;;;;;;10.60;9.47;;;;;;;-1.62;100.00;99391.25;4986674;28;20681;-69
2021/03/03 01:50:44;;;;;;;13.00;10.60;;;;;;;-1.62;100.00;99393.03;4985015;28;20221;-70
2021/03/03 01:53:12;;;;;;;12.83;9.83;;;;;;;-1.58;100.00;99389.41;4988706;28;20705;-70
2021/03/03 01:55:39;;;;;;;10.60;9.30;;;;;;;-1.51;100.00;99390.06;4985431;28;20206;-70
2021/03/03 01:58:07;;;;;;;14.00;10.57;;;;;;;-1.58;100.00;99396.34;4991344;28;20212;-70
2021/03/03 02:00:34;;;;;;;12.50;11.20;;;;;;;-1.73;100.00;99390.78;4985274;28;20216;-70
2021/03/03 02:03:01;;;;;;;11.43;10.13;;;;;;;-1.70;100.00;99389.84;4987298;28;20201;-70
2021/03/03 02:05:29;;;;;;;14.80;10.33;;;;;;;-1.77;99.64;99390.03;4987650;28;20213;-69
2021/03/03 02:08:00;;;;;;;11.37;10.20;;;;;;;-1.89;98.80;99398.25;4983195;28;20206;-70
2021/03/03 02:10:38;;;;;;;15.07;10.43;;;;;;;-1.85;99.59;99392.03;4984154;28;20658;-71
2021/03/03 02:13:09;;;;;;;11.23;9.00;;;;;;;-1.91;97.77;99392.25;4987715;28;20245;-70
2021/03/03 02:15:38;;;;;;;11.67;9.70;;;;;;;-1.98;98.86;99401.97;4983842;28;20206;-70
2021/03/03 02:18:06;;;;;;;14.27;9.50;;;;;;;-2.04;98.02;99404.78;4984349;28;20206;-71
2021/03/03 02:20:38;;;;;;;11.03;9.93;;;;;;;-2.06;99.65;99407.44;4985402;28;20213;-70
2021/03/03 02:23:12;;;;;;;11.87;10.60;;;;;;;-2.15;100.00;99407.72;4992309;28;20550;-69
2021/03/03 02:25:43;;;;;;;14.27;10.30;;;;;;;-2.15;100.00;99399.09;4999227;28;20209;-70
2021/03/03 02:28:12;;;;;;;10.90;9.57;;;;;;;-2.13;99.53;99399.88;4984965;28;20212;-70
2021/03/03 02:30:40;;;;;;;12.13;10.23;;;;;;;-2.12;100.00;99388.59;4985072;28;20209;-70
2021/03/03 02:33:10;;;;;;;13.63;10.17;;;;;;;-1.96;100.00;99387.19;4984179;28;20205;-70
2021/03/03 02:35:37;;;;;;;10.83;9.63;;;;;;;-2.10;100.00;99390.22;4987724;28;20227;-71
2021/03/03 02:38:05;;;;;;;13.23;11.00;;;;;;;-2.20;100.00;99392.28;4984067;28;20210;-70
2021/03/03 02:40:33;;;;;;;12.73;10.30;;;;;;;-2.15;100.00;99391.28;4987276;28;20594;-70
2021/03/03 02:43:02;;;;;;;10.57;9.47;;;;;;;-2.25;100.00;99393.31;4990181;28;20295;-71
2021/03/03 02:45:29;;;;;;;12.23;10.77;;;;;;;-2.29;100.00;99391.72;4984957;28;20463;-70
2021/03/03 02:47:57;;;;;;;23.00;11.67;;;;;;;-2.38;100.00;99391.13;4985162;28;20459;-70
2021/03/03 02:50:24;;;;;;;10.57;9.33;;;;;;;-2.42;100.00;99386.94;4991174;28;20216;-70
2021/03/03 02:52:52;;;;;;;10.87;9.77;;;;;;;-2.48;100.00;99387.97;4989140;28;20223;-71
2021/03/03 02:55:20;;;;;;;11.03;9.93;;;;;;;-2.51;100.00;99388.06;4981843;28;20523;-70
2021/03/03 02:57:48;;;;;;;14.07;10.57;;;;;;;-2.52;100.00;99386.34;4985516;28;20223;-71
2021/03/03 03:00:17;;;;;;;13.23;9.87;;;;;;;-2.52;100.00;99378.56;4986171;28;20202;-70
2021/03/03 03:02:47;;;;;;;13.97;10.23;;;;;;;-2.45;100.00;99386.16;4983234;28;20233;-70
2021/03/03 03:05:16;;;;;;;13.17;10.33;;;;;;;-2.29;100.00;99373.56;4983281;28;20229;-69
2021/03/03 03:07:48;;;;;;;15.13;11.10;;;;;;;-2.29;100.00;99379.56;4984092;28;20221;-71
2021/03/03 03:10:19;;;;;;;11.43;10.23;;;;;;;-2.35;100.00;99375.44;4982940;28;20565;-71
2021/03/03 03:12:50;;;;;;;13.47;11.60;;;;;;;-2.43;100.00;99368.78;4988053;28;20618;-69
2021/03/03 03:15:19;;;;;;;10.87;9.67;;;;;;;-2.48;100.00;99371.50;4986823;28;20237;-71
2021/03/03 03:17:50;;;;;;;16.90;11.40;;;;;;;-2.48;100.00;99376.72;4983898;28;20227;-70
2021/03/03 03:20:18;;;;;;;13.60;10.33;;;;;;;-2.51;100.00;99372.47;4983834;28;20263;-70
2021/03/03 03:22:46;;;;;;;13.00;11.60;;;;;;;-2.47;100.00;99374.06;4982407;28;20562;-70
2021/03/03 03:25:15;;;;;;;11.83;9.70;;;;;;;-2.47;100.00;99374.06;4984448;28;20323;-70
2021/03/03 03:27:42;;;;;;;12.13;9.70;;;;;;;-2.42;100.00;99379.16;4987811;28;20233;-70
2021/03/03 03:30:12;;;;;;;12.53;10.60;;;;;;;-2.37;100.00;99382.44;4985819;28;20227;-70
2021/03/03 03:32:40;;;;;;;11.63;10.37;;;;;;;-2.53;100.00;99379.47;4983831;28;20221;-71
2021/03/03 03:35:08;;;;;;;14.40;11.17;;;;;;;-2.62;100.00;99375.41;4982575;28;20205;-70
2021/03/03 03:37:36;;;;;;;13.60;9.20;;;;;;;-2.56;100.00;99373.50;4984682;28;20233;-70
2021/03/03 03:40:04;;;;;;;13.30;10.87;;;;;;;-2.52;100.00;99381.16;4984233;28;20216;-70
2021/03/03 03:42:31;;;;;;;15.10;10.33;;;;;;;-2.67;100.00;99381.59;4983323;28;20221;-69
2021/03/03 03:44:59;;;;;;;16.23;10.07;;;;;;;-2.71;100.00;99385.19;4988915;28;20559;-69
2021/03/03 03:47:26;;;;;;;12.20;10.13;;;;;;;-2.81;100.00;99379.47;4989259;28;20236;-70
2021/03/03 03:49:54;;;;;;;13.13;10.53;;;;;;;-2.85;100.00;99383.00;4978387;28;20272;-69
2021/03/03 03:52:21;;;;;;;13.63;9.93;;;;;;;-2.84;100.00;99382.09;4980349;28;20205;-71
2021/03/03 03:54:49;;;;;;;11.30;9.90;;;;;;;-2.82;100.00;99388.97;4983255;28;20214;-70
2021/03/03 03:57:16;;;;;;;12.97;10.00;;;;;;;-2.78;100.00;99387.97;4979612;28;20237;-70
2021/03/03 03:59:44;;;;;;;11.03;9.93;;;;;;;-2.84;100.00;99382.97;4980764;28;20689;-71
2021/03/03 04:02:11;;;;;;;13.60;10.80;;;;;;;-2.80;100.00;99376.78;4981374;28;20208;-70
2021/03/03 04:04:39;;;;;;;11.00;9.73;;;;;;;-2.88;100.00;99377.91;4982043;28;20284;-70
2021/03/03 04:07:07;;;;;;;14.60;11.37;;;;;;;-2.95;100.00;99375.50;4984389;28;20732;-69
2021/03/03 04:09:34;;;;;;;11.13;9.93;;;;;;;-3.01;100.00;99383.47;4985148;28;20212;-69
2021/03/03 04:12:01;;;;;;;11.50;10.30;;;;;;;-3.06;100.00;99380.16;4981349;28;20209;-68
2021/03/03 04:14:28;;;;;;;12.83;11.07;;;;;;;-3.13;100.00;99383.81;4984586;28;20201;-69
2021/03/03 04:16:55;;;;;;;11.70;10.50;;;;;;;-2.94;100.00;99386.75;4984555;28;20229;-69
2021/03/03 04:19:23;;;;;;;13.50;10.90;;;;;;;-3.09;100.00;99377.66;4989667;28;20253;-69
2021/03/03 04:21:50;;;;;;;11.33;10.23;;;;;;;-3.07;100.00;99379.28;4982559;28;20223;-70
2021/03/03 04:24:17;;;;;;;14.87;11.77;;;;;;;-3.01;100.00;99378.28;4991259;28;20605;-70
2021/03/03 04:26:44;;;;;;;11.50;9.70;;;;;;;-3.09;100.00;99375.06;4986583;28;20229;-70
2021/03/03 04:29:11;;;;;;;13.13;9.83;;;;;;;-2.95;100.00;99374.66;4984035;28;20220;-69
2021/03/03 04:31:39;;;;;;;13.60;9.90;;;;;;;-3.09;100.00;99370.69;4978579;28;20206;-67
2021/03/03 04:34:06;;;;;;;12.13;10.10;;;;;;;-2.91;100.00;99373.69;4984674;28;20213;-69
2021/03/03 04:36:33;;;;;;;15.33;11.13;;;;;;;-3.01;100.00;99370.50;4980223;28;20230;-69
2021/03/03 04:39:00;;;;;;;12.50;11.20;;;;;;;-2.87;100.00;99370.09;4992230;28;20692;-69
2021/03/03 04:41:28;;;;;;;11.40;10.30;;;;;;;-3.03;100.00;99382.66;4989695;28;20209;-68
2021/03/03 04:43:55;;;;;;;16.03;11.47;;;;;;;-3.09;100.00;99378.47;4989576;28;20724;-68
2021/03/03 04:46:22;;;;;;;11.47;9.60;;;;;;;-3.12;100.00;99377.75;4985791;28;20221;-69
2021/03/03 04:48:49;;;;;;;11.23;10.03;;;;;;;-3.23;100.00;99372.84;4987444;28;20755;-68
2021/03/03 04:51:16;;;;;;;12.40;10.93;;;;;;;-3.25;100.00;99359.09;4989402;28;20209;-69
2021/03/03 04:53:43;;;;;;;11.97;10.70;;;;;;;-3.28;100.00;99356.56;4987187;28;20205;-69
2021/03/03 04:56:10;;;;;;;18.60;11.73;;;;;;;-3.26;100.00;99365.16;4986074;28;20225;-69
2021/03/03 04:58:38;;;;;;;12.60;11.27;;;;;;;-3.29;100.00;99358.31;4992510;28;20198;-70
2021/03/03 05:01:06;;;;;;;12.47;11.17;;;;;;;-3.20;100.00;99350.28;4987388;28;20611;-70
2021/03/03 05:03:35;;;;;;;12.67;11.27;;;;;;;-3.21;100.00;99345.13;4986461;28;20235;-70
2021/03/03 05:06:06;;;;;;;13.00;10.63;;;;;;;-3.09;100.00;99349.97;4985403;28;20230;-70
2021/03/03 05:08:34;;;;;;;11.27;10.10;;;;;;;-3.01;100.00;99347.16;4984040;28;20210;-70
2021/03/03 05:11:02;;;;;;;11.00;9.97;;;;;;;-3.05;100.00;99340.34;4984601;28;20206;-70
2021/03/03 05:13:29;;;;;;;13.70;11.07;;;;;;;-2.97;100.00;99340.13;4986667;28;20217;-71
2021/03/03 05:15:58;;;;;;;13.30;10.03;;;;;;;-2.82;100.00;99344.03;4981873;28;20373;-70
2021/03/03 05:18:25;;;;;;;14.07;11.80;;;;;;;-2.84;100.00;99338.00;4981076;28;20289;-70
2021/03/03 05:20:52;;;;;;;11.47;10.27;;;;;;;-2.85;100.00;99331.13;4989040;28;20292;-71
2021/03/03 05:23:26;;;;;;;13.53;10.50;;;;;;;-2.81;100.00;99335.34;4986622;28;20200;-71
2021/03/03 05:25:53;;;;;;;11.97;10.70;;;;;;;-2.91;100.00;99345.97;4988039;28;20229;-71
2021/03/03 05:28:20;;;;;;;11.13;9.93;;;;;;;-2.96;100.00;99342.66;4987865;28;20231;-70
2021/03/03 05:30:48;;;;;;;10.90;9.80;;;;;;;-2.90;100.00;99346.84;4989141;28;20205;-70
2021/03/03 05:33:23;;;;;;;15.40;10.27;;;;;;;-2.86;100.00;99338.06;4991496;28;20233;-68
2021/03/03 05:35:51;;;;;;;13.63;10.43;;;;;;;-2.99;100.00;99347.13;4983037;28;20243;-67
2021/03/03 05:38:18;;;;;;;11.47;10.27;;;;;;;-3.09;100.00;99346.53;4983130;28;20723;-67
2021/03/03 05:40:46;;;;;;;12.37;10.47;;;;;;;-2.87;100.00;99341.56;4985064;28;20209;-66
2021/03/03 05:43:13;;;;;;;12.27;10.53;;;;;;;-2.91;100.00;99348.56;4986315;28;20205;-67
2021/03/03 05:45:41;;;;;;;12.63;10.27;;;;;;;-2.96;100.00;99350.44;4985034;28;20221;-67
2021/03/03 05:48:12;;;;;;;12.80;11.43;;;;;;;-2.88;100.00;99354.56;4983470;28;20320;-67
2021/03/03 05:50:41;;;;;;;11.77;10.57;;;;;;;-2.94;100.00;99360.81;4979390;28;20209;-67
2021/03/03 05:53:09;;;;;;;13.20;11.57;;;;;;;-2.95;100.00;99346.97;4977672;28;20217;-68
2021/03/03 05:55:37;;;;;;;13.83;10.70;;;;;;;-2.89;100.00;99347.66;4977144;28;20708;-68
2021/03/03 05:58:04;;;;;;;14.80;10.73;;;;;;;-2.81;100.00;99343.13;4976992;28;20463;-69
2021/03/03 06:00:31;;;;;;;12.47;11.17;;;;;;;-2.74;100.00;99338.59;4982068;28;20598;-69
2021/03/03 06:02:58;;;;;;;12.27;11.07;;;;;;;-2.77;100.00;99339.53;4982047;28;20733;-68
2021/03/03 06:05:25;;;;;;;13.47;11.40;;;;;;;-2.73;100.00;99345.47;4983429;28;20518;-70
2021/03/03 06:07:53;;;;;;;14.20;12.20;;;;;;;-2.55;100.00;99342.31;4988523;28;20230;-69
2021/03/03 06:10:20;;;;;;;17.33;11.67;;;;;;;-2.60;100.00;99345.94;4991582;28;20853;-69
2021/03/03 06:12:49;;;;;;;18.33;11.03;;;;;;;-2.53;100.00;99350.91;4988455;28;20229;-68
2021/03/03 06:15:17;;;;;;;18.80;11.23;;;;;;;-2.52;100.00;99343.97;4975911;28;21919;-68
2021/03/03 06:17:44;;;;;;;15.83;12.40;;;;;;;-2.39;100.00;99336.63;4977013;28;20244;-67
2021/03/03 06:20:12;;;;;;;13.17;10.87;;;;;;;-2.27;100.00;99338.84;4977736;28;20221;-68
2021/03/03 06:22:39;;;;;;;19.07;11.93;;;;;;;-1.73;100.00;99348.31;4975704;28;20206;-68
2021/03/03 06:25:18;;;;;;;23.20;11.83;;;;;;;-1.49;100.00;99350.09;4975734;28;20632;-71
2021/03/03 06:27:47;;;;;;;14.40;12.00;;;;;;;-1.61;100.00;99358.31;4981409;28;20606;-68
2021/03/03 06:30:16;;;;;;;12.03;10.77;;;;;;;-1.67;100.00;99354.19;4984385;28;20202;-68
2021/03/03 06:32:54;;;;;;;13.47;12.03;;;;;;;-1.37;100.00;99360.94;4982309;28;20605;-68
2021/03/03 06:35:32;;;;;;;14.13;11.07;;;;;;;-1.33;100.00;99346.91;4985993;28;20417;-69
2021/03/03 06:37:59;;;;;;;15.50;11.93;;;;;;;-1.53;100.00;99361.50;4982296;28;20217;-67
2021/03/03 06:40:27;;;;;;;12.57;11.27;;;;;;;-1.23;100.00;99348.31;4981939;28;20213;-69
2021/03/03 06:42:54;;;;;;;16.07;12.37;;;;;;;-1.21;100.00;99354.31;4977461;28;20510;-69
2021/03/03 06:45:29;;;;;;;15.90;12.83;;;;;;;-1.28;100.00;99360.63;4976521;28;20492;-69
2021/03/03 06:47:56;;;;;;;14.73;12.00;;;;;;;-1.09;100.00;99355.59;4982326;28;20220;-69
2021/03/03 06:50:34;;;;;;;16.03;13.40;;;;;;;-1.08;100.00;99348.63;4986407;28;20296;-68
2021/03/03 06:53:01;;;;;;;13.97;12.10;;;;;;;-0.98;100.00;99351.75;4973260;28;20205;-68
2021/03/03 06:55:44;;;;;;;15.60;12.37;;;;;;;-1.03;100.00;99349.31;4978337;28;20434;-69
2021/03/03 06:58:27;;;;;;;15.97;11.67;;;;;;;-0.83;99.50;99342.53;4978316;28;20210;-69
2021/03/03 07:00:57;;;;;;;15.23;12.70;;;;;;;-0.63;97.92;99353.00;4978958;28;20214;-70
2021/03/03 07:03:26;;;;;;;19.43;13.73;;;;;;;-0.54;95.41;99356.19;4977324;28;20241;-69
2021/03/03 07:05:54;;;;;;;19.23;12.30;;;;;;;-0.61;96.52;99353.78;4980294;28;20233;-68
2021/03/03 07:08:21;;;;;;;14.60;12.93;;;;;;;-0.46;96.83;99354.13;4982928;28;20205;-69
2021/03/03 07:10:49;;;;;;;14.90;12.83;;;;;;;-0.49;97.84;99367.25;4984628;28;20575;-69
2021/03/03 07:13:17;;;;;;;14.47;11.27;;;;;;;-0.31;97.58;99358.69;4988646;28;20221;-68
2021/03/03 07:15:44;;;;;;;12.80;11.47;;;;;;;-0.32;97.50;99356.19;4991218;28;20308;-69
2021/03/03 07:18:37;;;;;;;14.67;11.63;;;;;;;-0.19;94.23;99359.09;4986879;28;20209;-70
2021/03/03 07:21:06;;;;;;;15.53;13.10;;;;;;;-0.26;93.89;99361.13;4984312;28;20219;-69
2021/03/03 07:23:57;;;;;;;15.07;12.97;;;;;;;-0.23;95.45;99354.94;4985188;28;20210;-68
2021/03/03 07:26:25;;;;;;;14.37;12.37;;;;;;;-0.18;94.30;99356.44;4965768;28;20232;-69
2021/03/03 07:28:52;;;;;;;16.27;12.10;;;;;;;0.05;93.14;99354.69;4987302;28;20216;-69
2021/03/03 07:31:20;;;;;;;14.57;12.83;;;;;;;-0.03;93.26;99351.50;4983164;28;20205;-69
2021/03/03 07:33:48;;;;;;;15.80;11.97;;;;;;;0.04;92.96;99360.81;4983214;28;20208;-69
2021/03/03 07:36:18;;;;;;;14.47;12.20;;;;;;;0.27;92.61;99367.66;4985620;28;20387;-69
2021/03/03 07:38:48;;;;;;;16.13;13.47;;;;;;;0.20;92.41;99374.03;4986134;28;20578;-67
2021/03/03 07:41:17;;;;;;;14.73;12.10;;;;;;;0.35;92.77;99369.09;4988110;28;20205;-68
2021/03/03 07:43:49;;;;;;;17.77;12.97;;;;;;;0.46;91.74;99358.19;4986434;28;20201;-69
2021/03/03 07:46:16;;;;;;;16.43;13.97;;;;;;;0.37;91.45;99362.88;4987377;28;20225;-69
2021/03/03 07:48:45;;;;;;;14.43;12.20;;;;;;;0.52;92.21;99365.75;4987907;28;20211;-69
2021/03/03 07:51:12;;;;;;;16.67;13.13;;;;;;;0.65;90.94;99364.28;4988452;28;20216;-68
2021/03/03 07:53:40;;;;;;;15.43;13.47;;;;;;;0.81;89.62;99368.84;4984715;28;20208;-69
2021/03/03 07:56:09;;;;;;;15.47;12.30;;;;;;;0.75;89.76;99364.75;4986015;28;20260;-69
2021/03/03 07:58:37;;;;;;;17.40;14.40;;;;;;;0.74;90.45;99365.66;4982974;28;20216;-69
2021/03/03 08:01:22;;;;;;;15.60;13.93;;;;;;;1.06;89.65;99360.75;4982076;28;20647;-69
2021/03/03 08:03:51;;;;;;;17.73;13.60;;;;;;;1.30;87.80;99353.56;4987166;28;20209;-68
2021/03/03 08:06:36;;;;;;;16.17;13.70;;;;;;;1.23;88.05;99352.16;4983196;28;20516;-69
2021/03/03 08:09:15;;;;;;;16.60;14.13;;;;;;;1.36;87.92;99349.81;4987329;28;20209;-70
2021/03/03 08:12:02;;;;;;;20.47;14.23;;;;;;;1.30;88.17;99344.84;4984501;28;20197;-70
2021/03/03 08:14:33;;;;;;;15.37;13.77;;;;;;;1.39;88.34;99346.19;4985191;28;20204;-68
2021/03/03 08:17:04;;;;;;;14.53;12.87;;;;;;;1.44;88.49;99355.53;4987736;28;20618;-69
2021/03/03 08:19:50;;;;;;;16.47;13.87;;;;;;;1.79;86.89;99352.13;4990568;28;20197;-70
2021/03/03 08:22:18;;;;;;;19.03;14.47;;;;;;;1.91;85.97;99352.47;4989787;28;20900;-70
2021/03/03 08:24:45;;;;;;;16.20;13.60;;;;;;;2.02;85.79;99355.41;4985964;28;20590;-68
2021/03/03 08:27:37;;;;;;;16.20;14.27;;;;;;;2.14;85.50;99362.63;4984193;28;20552;-69
2021/03/03 08:30:15;;;;;;;15.10;13.50;;;;;;;2.08;85.00;99359.44;4984878;28;20209;-69
2021/03/03 08:32:43;;;;;;;16.87;13.67;;;;;;;1.98;86.12;99367.75;4975418;28;20206;-71
2021/03/03 08:35:11;;;;;;;17.13;14.23;;;;;;;2.24;85.16;99360.41;4975934;28;20212;-69
2021/03/03 08:37:39;;;;;;;16.47;14.07;;;;;;;2.46;84.21;99365.38;4978962;28;20737;-70
2021/03/03 08:40:26;;;;;;;16.43;13.97;;;;;;;2.83;81.94;99365.22;4983616;28;20206;-70
2021/03/03 08:42:53;;;;;;;17.30;14.73;;;;;;;2.85;81.45;99370.41;4983921;28;20202;-69
2021/03/03 08:45:27;;;;;;;16.03;14.03;;;;;;;3.09;81.44;99355.16;4988633;28;20247;-70
2021/03/03 08:47:57;;;;;;;16.30;14.60;;;;;;;3.14;81.06;99358.34;4983912;28;20225;-70
2021/03/03 08:50:43;;;;;;;17.57;14.53;;;;;;;3.39;80.04;99359.66;4981885;28;20288;-70
2021/03/03 08:53:19;;;;;;;18.67;15.73;;;;;;;3.17;81.36;99357.34;4987260;28;20213;-69
2021/03/03 08:55:46;;;;;;;18.33;15.67;;;;;;;3.45;80.36;99340.97;4986545;28;20752;-69
2021/03/03 08:58:48;;;;;;;18.57;16.13;;;;;;;3.39;80.78;99335.19;4987759;28;20201;-70
2021/03/03 09:01:16;;;;;;;20.17;16.30;;;;;;;3.59;80.84;99336.69;4969101;28;20213;-68
2021/03/03 09:03:49;;;;;;;18.03;16.00;;;;;;;3.96;78.74;99333.78;4987876;28;20237;-69
2021/03/03 09:06:33;;;;;;;17.53;14.77;;;;;;;3.94;78.88;99323.34;4982847;28;20779;-69
2021/03/03 09:09:01;;;;;;;17.80;15.77;;;;;;;4.17;77.58;99323.81;4986624;28;20198;-68
2021/03/03 09:11:28;;;;;;;19.73;15.70;;;;;;;4.18;77.95;99323.72;4992120;28;20205;-70
2021/03/03 09:13:56;;;;;;;18.77;15.77;;;;;;;4.38;77.51;99333.97;4993548;28;20201;-68
2021/03/03 09:16:23;;;;;;;19.23;16.87;;;;;;;4.67;76.31;99329.59;4983222;28;20709;-69
2021/03/03 09:19:06;;;;;;;17.60;15.73;;;;;;;4.68;75.66;99338.28;4989821;28;20666;-71
2021/03/03 09:21:33;;;;;;;19.67;17.27;;;;;;;4.73;75.45;99328.34;4986241;28;20574;-70
2021/03/03 09:24:08;;;;;;;18.07;16.03;;;;;;;4.67;76.40;99324.34;4990211;28;20781;-69
2021/03/03 09:26:36;;;;;;;20.43;15.93;;;;;;;4.87;75.97;99328.38;4983216;28;20234;-71
2021/03/03 09:29:03;;;;;;;19.80;17.17;;;;;;;5.01;74.91;99327.50;4986697;28;20213;-71
2021/03/03 09:31:31;;;;;;;18.47;16.47;;;;;;;4.98;74.85;99322.44;4985613;28;20293;-68
2021/03/03 09:33:59;;;;;;;18.23;16.30;;;;;;;5.43;73.49;99324.88;4989066;28;20823;-69
2021/03/03 09:36:28;;;;;;;20.63;17.33;;;;;;;5.59;71.87;99326.53;4990883;28;20226;-71
2021/03/03 09:38:57;;;;;;;21.60;16.67;;;;;;;5.44;73.35;99320.47;4988101;28;20208;-68
2021/03/03 09:41:25;;;;;;;20.10;16.83;;;;;;;5.63;72.18;99326.22;4977561;28;20614;-70
2021/03/03 09:44:03;;;;;;;20.27;18.03;;;;;;;5.68;72.41;99325.06;4986231;28;20225;-70
2021/03/03 09:46:54;;;;;;;20.93;17.00;;;;;;;5.62;71.60;99327.16;4985205;28;20312;-70
2021/03/03 09:49:26;;;;;;;19.23;17.20;;;;;;;5.93;71.69;99322.53;4988922;28;20240;-69
2021/03/03 09:51:55;;;;;;;18.87;16.87;;;;;;;6.22;69.89;99313.66;4985116;28;20217;-67
2021/03/03 09:54:32;;;;;;;18.03;16.17;;;;;;;6.39;69.73;99315.16;4989091;28;20237;-67
2021/03/03 09:57:04;;;;;;;22.77;17.17;;;;;;;6.40;68.97;99313.38;4987953;28;20233;-67
2021/03/03 09:59:33;;;;;;;20.20;18.03;;;;;;;6.68;67.88;99308.84;4986035;28;20202;-69
2021/03/03 10:02:01;;;;;;;18.67;16.73;;;;;;;6.75;68.01;99307.47;4986911;28;20209;-68
2021/03/03 10:04:28;;;;;;;20.03;17.50;;;;;;;6.68;68.42;99304.41;4989743;28;20225;-67
2021/03/03 10:06:58;;;;;;;21.87;18.67;;;;;;;6.68;68.57;99303.56;4975285;28;20233;-68
2021/03/03 10:09:26;;;;;;;21.17;17.97;;;;;;;6.95;67.59;99304.25;4980836;28;20305;-68
2021/03/03 10:11:55;;;;;;;18.43;16.47;;;;;;;7.02;67.85;99319.66;4976825;28;20214;-68
2021/03/03 10:14:22;;;;;;;20.03;17.20;;;;;;;7.24;66.97;99321.59;4981978;28;20213;-67
2021/03/03 10:17:00;;;;;;;19.97;17.40;;;;;;;6.65;67.65;99330.97;4980374;28;20380;-68
2021/03/03 10:19:28;;;;;;;21.70;17.37;;;;;;;6.91;68.15;99318.59;4979523;28;20333;-68
2021/03/03 10:21:55;;;;;;;18.67;16.53;;;;;;;7.25;67.15;99312.75;4978813;28;20213;-68
2021/03/03 10:24:25;;;;;;;19.73;17.63;;;;;;;7.35;67.30;99311.13;4973364;28;20220;-67
2021/03/03 10:26:52;;;;;;;22.27;18.27;;;;;;;7.45;66.12;99315.72;4978882;28;20226;-68
2021/03/03 10:29:36;;;;;;;19.93;17.10;;;;;;;7.50;66.70;99316.22;4977309;28;20292;-68
2021/03/03 10:32:11;;;;;;;24.30;17.03;;;;;;;7.43;66.83;99318.47;4977969;28;20216;-69
2021/03/03 10:34:38;;;;;;;21.60;19.20;;;;;;;7.76;65.17;99316.13;4984421;28;20692;-68
2021/03/03 10:37:09;;;;;;;22.73;20.03;;;;;;;7.64;65.99;99321.34;4981620;28;20268;-68
2021/03/03 10:39:37;;;;;;;20.50;16.77;;;;;;;7.97;66.11;99329.50;4988822;28;20209;-68
2021/03/03 10:42:09;;;;;;;18.93;16.17;;;;;;;8.16;64.08;99322.88;4983275;28;20217;-68
2021/03/03 10:44:40;;;;;;;20.07;18.13;;;;;;;8.10;63.60;99322.34;4980571;28;20236;-70
2021/03/03 10:47:08;;;;;;;22.73;17.13;;;;;;;7.98;63.95;99331.19;4977628;28;20229;-66
2021/03/03 10:49:39;;;;;;;19.83;16.97;;;;;;;8.11;63.88;99329.31;4987609;28;20293;-68
2021/03/03 10:52:19;;;;;;;20.40;17.60;;;;;;;8.21;63.94;99326.81;4985514;28;20211;-68
2021/03/03 10:54:47;;;;;;;20.33;17.17;;;;;;;8.25;63.60;99330.91;4988372;28;20819;-67
2021/03/03 10:57:14;;;;;;;18.73;16.63;;;;;;;8.48;62.43;99324.84;4989709;28;20230;-69
2021/03/03 10:59:41;;;;;;;20.13;17.60;;;;;;;8.29;63.38;99320.13;4985234;28;20292;-67
2021/03/03 11:02:10;;;;;;;20.73;18.53;;;;;;;8.32;63.69;99318.09;4985127;28;20555;-69
2021/03/03 11:04:40;;;;;;;23.23;19.67;;;;;;;8.49;63.35;99313.31;4986183;28;20221;-66
2021/03/03 11:07:09;;;;;;;23.43;20.90;;;;;;;8.75;62.48;99313.13;4987144;28;20233;-69
2021/03/03 11:09:37;;;;;;;21.53;19.07;;;;;;;8.63;63.03;99315.78;4988784;28;20288;-68
2021/03/03 11:12:11;;;;;;;22.90;18.70;;;;;;;9.12;60.10;99304.94;4987414;28;20213;-69
2021/03/03 11:14:41;;;;;;;20.57;18.13;;;;;;;8.85;62.31;99306.16;4986505;28;20223;-69
2021/03/03 11:17:09;;;;;;;23.57;17.13;;;;;;;9.18;61.14;99293.03;4988701;28;20317;-69
2021/03/03 11:19:37;;;;;;;21.30;19.03;;;;;;;9.20;61.40;99291.94;4990031;28;20626;-67
2021/03/03 11:22:05;;;;;;;20.23;17.70;;;;;;;9.40;60.52;99287.69;4980974;28;20213;-67
2021/03/03 11:24:32;;;;;;;22.00;17.37;;;;;;;8.94;61.75;99271.06;4980915;28;20277;-69
2021/03/03 11:26:59;;;;;;;23.50;19.13;;;;;;;9.02;61.17;99275.72;4977260;28;20233;-68